sensor_id;sensor_type;location;lat;lon;timestamp;pressure;altitude;pressure_sealevel;temperature;humidity
20955;BME280;10636;19.390;-99.256;2023-02-12T00:01:16;77797.72;;;24.09;32.08
20955;BME280;10636;19.390;-99.256;2023-02-12T00:03:45;77799.13;;;24.10;32.90
20955;BME280;10636;19.390;-99.256;2023-02-12T00:06:14;77804.50;;;24.10;32.45
20955;BME280;10636;19.390;-99.256;2023-02-12T00:08:47;77795.00;;;24.07;32.99
20955;BME280;10636;19.390;-99.256;2023-02-12T00:11:17;77804.50;;;24.10;32.72
20955;BME280;10636;19.390;-99.256;2023-02-12T00:13:47;77806.47;;;24.10;33.06
20955;BME280;10636;19.390;-99.256;2023-02-12T00:16:18;77804.50;;;24.10;32.86
20955;BME280;10636;19.390;-99.256;2023-02-12T00:18:47;77804.50;;;24.10;33.19
20955;BME280;10636;19.390;-99.256;2023-02-12T00:21:15;77811.75;;;24.08;32.83
20955;BME280;10636;19.390;-99.256;2023-02-12T00:23:46;77820.47;;;24.08;33.38
20955;BME280;10636;19.390;-99.256;2023-02-12T00:26:16;77812.44;;;24.08;33.05
20955;BME280;10636;19.390;-99.256;2023-02-12T00:28:45;77829.13;;;24.07;33.04
20955;BME280;10636;19.390;-99.256;2023-02-12T00:31:15;77829.59;;;24.01;32.69
20955;BME280;10636;19.390;-99.256;2023-02-12T00:33:44;77836.38;;;24.04;33.26
20955;BME280;10636;19.390;-99.256;2023-02-12T00:36:15;77835.69;;;24.04;32.82
20955;BME280;10636;19.390;-99.256;2023-02-12T00:38:45;77841.16;;;24.06;32.95
20955;BME280;10636;19.390;-99.256;2023-02-12T00:41:14;77837.69;;;24.03;32.78
20955;BME280;10636;19.390;-99.256;2023-02-12T00:43:43;77847.72;;;24.03;32.57
20955;BME280;10636;19.390;-99.256;2023-02-12T00:46:12;77852.31;;;24.00;33.00
20955;BME280;10636;19.390;-99.256;2023-02-12T00:48:41;77865.72;;;24.00;33.35
20955;BME280;10636;19.390;-99.256;2023-02-12T00:51:10;77872.28;;;23.97;33.25
20955;BME280;10636;19.390;-99.256;2023-02-12T00:53:39;77891.03;;;23.97;32.98
20955;BME280;10636;19.390;-99.256;2023-02-12T00:56:10;77895.72;;;23.96;32.71
20955;BME280;10636;19.390;-99.256;2023-02-12T00:58:38;77909.78;;;23.97;32.62
20955;BME280;10636;19.390;-99.256;2023-02-12T01:01:07;77915.06;;;23.95;32.77
20955;BME280;10636;19.390;-99.256;2023-02-12T01:03:35;77923.09;;;23.95;33.37
20955;BME280;10636;19.390;-99.256;2023-02-12T01:06:04;77909.63;;;23.93;33.39
20955;BME280;10636;19.390;-99.256;2023-02-12T01:08:33;77925.00;;;23.92;32.66
20955;BME280;10636;19.390;-99.256;2023-02-12T01:11:03;77910.91;;;23.92;33.48
20955;BME280;10636;19.390;-99.256;2023-02-12T01:13:34;77925.69;;;23.93;33.16
20955;BME280;10636;19.390;-99.256;2023-02-12T01:16:14;77940.38;;;23.92;32.74
20955;BME280;10636;19.390;-99.256;2023-02-12T01:18:44;77941.06;;;23.92;33.11
20955;BME280;10636;19.390;-99.256;2023-02-12T01:21:14;77944.38;;;23.91;33.46
20955;BME280;10636;19.390;-99.256;2023-02-12T01:23:43;77944.19;;;23.87;32.74
20955;BME280;10636;19.390;-99.256;2023-02-12T01:26:13;77960.94;;;23.87;32.61
20955;BME280;10636;19.390;-99.256;2023-02-12T01:28:51;77966.31;;;23.87;33.13
20955;BME280;10636;19.390;-99.256;2023-02-12T01:31:23;77967.53;;;23.84;32.91
20955;BME280;10636;19.390;-99.256;2023-02-12T01:33:54;77969.69;;;23.88;33.14
20955;BME280;10636;19.390;-99.256;2023-02-12T01:36:24;77969.78;;;23.90;33.12
20955;BME280;10636;19.390;-99.256;2023-02-12T01:38:52;77968.41;;;23.89;33.25
20955;BME280;10636;19.390;-99.256;2023-02-12T01:41:23;77980.38;;;23.88;33.00
20955;BME280;10636;19.390;-99.256;2023-02-12T01:44:09;77998.44;;;23.87;33.39
20955;BME280;10636;19.390;-99.256;2023-02-12T01:46:38;77996.38;;;23.86;33.46
20955;BME280;10636;19.390;-99.256;2023-02-12T01:49:10;78007.03;;;23.84;32.94
20955;BME280;10636;19.390;-99.256;2023-02-12T01:51:40;78009.69;;;23.84;32.93
20955;BME280;10636;19.390;-99.256;2023-02-12T01:54:11;78012.28;;;23.82;33.59
20955;BME280;10636;19.390;-99.256;2023-02-12T01:56:41;77982.16;;;23.65;33.26
20955;BME280;10636;19.390;-99.256;2023-02-12T01:59:12;77993.47;;;23.80;33.18
20955;BME280;10636;19.390;-99.256;2023-02-12T02:01:41;77984.13;;;23.81;33.64
20955;BME280;10636;19.390;-99.256;2023-02-12T02:04:12;77988.09;;;23.80;33.57
20955;BME280;10636;19.390;-99.256;2023-02-12T02:06:46;78003.47;;;23.79;33.41
20955;BME280;10636;19.390;-99.256;2023-02-12T02:09:17;78030.84;;;23.78;33.24
20955;BME280;10636;19.390;-99.256;2023-02-12T02:11:46;78039.59;;;23.78;32.98
20955;BME280;10636;19.390;-99.256;2023-02-12T02:14:33;78042.88;;;23.77;32.91
20955;BME280;10636;19.390;-99.256;2023-02-12T02:17:27;78046.84;;;23.76;33.58
20955;BME280;10636;19.390;-99.256;2023-02-12T02:20:31;78056.25;;;23.77;32.90
20955;BME280;10636;19.390;-99.256;2023-02-12T02:23:29;78045.47;;;23.74;33.27
20955;BME280;10636;19.390;-99.256;2023-02-12T02:26:31;78049.44;;;23.73;33.58
20955;BME280;10636;19.390;-99.256;2023-02-12T02:29:20;78045.47;;;23.74;33.54
20955;BME280;10636;19.390;-99.256;2023-02-12T02:32:00;78056.88;;;23.75;33.27
20955;BME280;10636;19.390;-99.256;2023-02-12T02:34:39;78056.69;;;23.71;33.23
20955;BME280;10636;19.390;-99.256;2023-02-12T02:37:14;78062.91;;;23.76;33.10
20955;BME280;10636;19.390;-99.256;2023-02-12T02:39:49;78062.22;;;23.75;33.82
20955;BME280;10636;19.390;-99.256;2023-02-12T02:42:25;78061.53;;;23.74;33.67
20955;BME280;10636;19.390;-99.256;2023-02-12T02:44:59;78072.25;;;23.74;33.73
20955;BME280;10636;19.390;-99.256;2023-02-12T02:47:34;78072.25;;;23.74;33.30
20955;BME280;10636;19.390;-99.256;2023-02-12T02:50:08;78076.72;;;23.70;33.09
20955;BME280;10636;19.390;-99.256;2023-02-12T02:52:44;78078.91;;;23.73;33.50
20955;BME280;10636;19.390;-99.256;2023-02-12T02:55:17;78085.53;;;23.72;33.34
20955;BME280;10636;19.390;-99.256;2023-02-12T02:57:50;78093.66;;;23.74;33.02
20955;BME280;10636;19.390;-99.256;2023-02-12T03:00:25;78098.16;;;23.70;33.40
20955;BME280;10636;19.390;-99.256;2023-02-12T03:03:01;78104.88;;;23.71;34.05
20955;BME280;10636;19.390;-99.256;2023-02-12T03:05:36;78101.44;;;23.68;33.99
20955;BME280;10636;19.390;-99.256;2023-02-12T03:08:10;78110.75;;;23.67;34.17
20955;BME280;10636;19.390;-99.256;2023-02-12T03:10:43;78110.75;;;23.67;34.33
20955;BME280;10636;19.390;-99.256;2023-02-12T03:13:17;78112.72;;;23.67;33.44
20955;BME280;10636;19.390;-99.256;2023-02-12T03:15:51;78112.03;;;23.66;34.12
20955;BME280;10636;19.390;-99.256;2023-02-12T03:18:24;78115.41;;;23.67;34.02
20955;BME280;10636;19.390;-99.256;2023-02-12T03:20:59;78120.06;;;23.66;34.14
20955;BME280;10636;19.390;-99.256;2023-02-12T03:23:31;78110.59;;;23.63;33.28
20955;BME280;10636;19.390;-99.256;2023-02-12T03:26:05;78112.66;;;23.65;33.38
20955;BME280;10636;19.390;-99.256;2023-02-12T03:28:36;78115.72;;;23.59;34.04
20955;BME280;10636;19.390;-99.256;2023-02-12T03:31:10;78131.88;;;23.61;33.44
20955;BME280;10636;19.390;-99.256;2023-02-12T03:33:51;78126.53;;;23.61;33.27
20955;BME280;10636;19.390;-99.256;2023-02-12T03:36:28;78122.47;;;23.60;33.91
20955;BME280;10636;19.390;-99.256;2023-02-12T03:39:06;78121.78;;;23.60;34.05
20955;BME280;10636;19.390;-99.256;2023-02-12T03:41:41;78120.41;;;23.59;33.69
20955;BME280;10636;19.390;-99.256;2023-02-12T03:44:17;78129.03;;;23.57;33.63
20955;BME280;10636;19.390;-99.256;2023-02-12T03:46:57;78120.91;;;23.55;33.26
20955;BME280;10636;19.390;-99.256;2023-02-12T03:49:31;78128.25;;;23.55;33.82
20955;BME280;10636;19.390;-99.256;2023-02-12T03:52:03;78131.59;;;23.55;33.13
20955;BME280;10636;19.390;-99.256;2023-02-12T03:54:32;78130.91;;;23.55;34.14
20955;BME280;10636;19.390;-99.256;2023-02-12T03:57:06;78134.19;;;23.53;33.58
20955;BME280;10636;19.390;-99.256;2023-02-12T03:59:38;78142.31;;;23.55;33.76
20955;BME280;10636;19.390;-99.256;2023-02-12T04:02:08;78138.25;;;23.54;33.23
20955;BME280;10636;19.390;-99.256;2023-02-12T04:04:39;78138.19;;;23.52;34.10
20955;BME280;10636;19.390;-99.256;2023-02-12T04:07:07;78141.44;;;23.51;34.16
20955;BME280;10636;19.390;-99.256;2023-02-12T04:09:37;78139.38;;;23.49;34.04
20955;BME280;10636;19.390;-99.256;2023-02-12T04:12:20;78140.75;;;23.50;33.69
20955;BME280;10636;19.390;-99.256;2023-02-12T04:15:00;78138.00;;;23.48;34.06
20955;BME280;10636;19.390;-99.256;2023-02-12T04:17:34;78141.44;;;23.51;33.45
20955;BME280;10636;19.390;-99.256;2023-02-12T04:20:12;78144.81;;;23.51;33.61
20955;BME280;10636;19.390;-99.256;2023-02-12T04:22:51;78140.06;;;23.49;33.39
20955;BME280;10636;19.390;-99.256;2023-02-12T04:25:30;78144.72;;;23.49;33.37
20955;BME280;10636;19.390;-99.256;2023-02-12T04:28:08;78144.03;;;23.48;33.76
20955;BME280;10636;19.390;-99.256;2023-02-12T04:30:43;78139.38;;;23.49;33.97
20955;BME280;10636;19.390;-99.256;2023-02-12T04:33:16;78141.97;;;23.47;33.94
20955;BME280;10636;19.390;-99.256;2023-02-12T04:35:51;78142.03;;;23.49;34.19
20955;BME280;10636;19.390;-99.256;2023-02-12T04:38:25;78153.38;;;23.47;33.34
20955;BME280;10636;19.390;-99.256;2023-02-12T04:40:54;78148.59;;;23.46;33.70
20955;BME280;10636;19.390;-99.256;2023-02-12T04:43:27;78154.56;;;23.44;34.23
20955;BME280;10636;19.390;-99.256;2023-02-12T04:45:56;78149.88;;;23.45;33.84
20955;BME280;10636;19.390;-99.256;2023-02-12T04:48:24;78150.50;;;23.43;33.37
20955;BME280;10636;19.390;-99.256;2023-02-12T04:50:55;78163.19;;;23.43;33.90
20955;BME280;10636;19.390;-99.256;2023-02-12T04:53:23;78149.00;;;23.40;33.83
20955;BME280;10636;19.390;-99.256;2023-02-12T04:55:52;78142.78;;;23.36;33.45
20955;BME280;10636;19.390;-99.256;2023-02-12T04:58:20;78158.94;;;23.38;33.72
20955;BME280;10636;19.390;-99.256;2023-02-12T05:00:49;78153.59;;;23.38;34.02
20955;BME280;10636;19.390;-99.256;2023-02-12T05:03:18;78149.44;;;23.35;33.73
20955;BME280;10636;19.390;-99.256;2023-02-12T05:05:46;78156.06;;;23.34;34.09
20955;BME280;10636;19.390;-99.256;2023-02-12T05:08:16;78165.41;;;23.33;34.19
20955;BME280;10636;19.390;-99.256;2023-02-12T05:10:45;78154.63;;;23.31;33.85
20955;BME280;10636;19.390;-99.256;2023-02-12T05:13:14;78151.94;;;23.31;33.28
20955;BME280;10636;19.390;-99.256;2023-02-12T05:15:42;78151.22;;;23.30;33.44
20955;BME280;10636;19.390;-99.256;2023-02-12T05:18:11;78155.19;;;23.29;34.08
20955;BME280;10636;19.390;-99.256;2023-02-12T05:20:39;78166.59;;;23.30;33.85
20955;BME280;10636;19.390;-99.256;2023-02-12T05:23:08;78153.72;;;23.26;33.45
20955;BME280;10636;19.390;-99.256;2023-02-12T05:25:38;78155.00;;;23.25;33.51
20955;BME280;10636;19.390;-99.256;2023-02-12T05:28:09;78160.34;;;23.25;33.90
20955;BME280;10636;19.390;-99.256;2023-02-12T05:30:46;78159.66;;;23.25;33.89
20955;BME280;10636;19.390;-99.256;2023-02-12T05:33:15;78154.31;;;23.25;34.15
20955;BME280;10636;19.390;-99.256;2023-02-12T05:35:43;78149.66;;;23.25;33.74
20955;BME280;10636;19.390;-99.256;2023-02-12T05:38:12;78150.88;;;23.22;34.30
20955;BME280;10636;19.390;-99.256;2023-02-12T05:40:42;78143.94;;;23.17;33.78
20955;BME280;10636;19.390;-99.256;2023-02-12T05:43:11;78147.50;;;23.21;33.78
20955;BME280;10636;19.390;-99.256;2023-02-12T05:45:39;78144.72;;;23.19;34.17
20955;BME280;10636;19.390;-99.256;2023-02-12T05:48:10;78144.63;;;23.17;34.01
20955;BME280;10636;19.390;-99.256;2023-02-12T05:50:38;78139.28;;;23.17;34.41
20955;BME280;10636;19.390;-99.256;2023-02-12T05:53:07;78143.94;;;23.17;34.18
20955;BME280;10636;19.390;-99.256;2023-02-12T05:55:35;78131.16;;;23.15;33.74
20955;BME280;10636;19.390;-99.256;2023-02-12T05:58:06;78136.53;;;23.15;33.66
20955;BME280;10636;19.390;-99.256;2023-02-12T06:00:34;78126.94;;;23.10;34.11
20955;BME280;10636;19.390;-99.256;2023-02-12T06:03:03;78141.75;;;23.13;34.11
20955;BME280;10636;19.390;-99.256;2023-02-12T06:05:31;78125.03;;;23.13;34.04
20955;BME280;10636;19.390;-99.256;2023-02-12T06:08:00;78136.41;;;23.13;33.49
20955;BME280;10636;19.390;-99.256;2023-02-12T06:10:28;78123.72;;;23.14;33.64
20955;BME280;10636;19.390;-99.256;2023-02-12T06:12:57;78136.34;;;23.11;34.34
20955;BME280;10636;19.390;-99.256;2023-02-12T06:15:27;78123.56;;;23.10;33.90
20955;BME280;10636;19.390;-99.256;2023-02-12T06:17:56;78132.84;;;23.09;34.13
20955;BME280;10636;19.390;-99.256;2023-02-12T06:20:25;78128.19;;;23.09;33.95
20955;BME280;10636;19.390;-99.256;2023-02-12T06:22:54;78126.81;;;23.08;34.47
20955;BME280;10636;19.390;-99.256;2023-02-12T06:25:22;78123.38;;;23.06;34.02
20955;BME280;10636;19.390;-99.256;2023-02-12T06:27:51;78125.34;;;23.05;33.70
20955;BME280;10636;19.390;-99.256;2023-02-12T06:30:19;78122.69;;;23.05;33.95
20955;BME280;10636;19.390;-99.256;2023-02-12T06:32:50;78122.47;;;23.01;34.10
20955;BME280;10636;19.390;-99.256;2023-02-12T06:35:19;78127.22;;;23.03;34.33
20955;BME280;10636;19.390;-99.256;2023-02-12T06:37:47;78121.19;;;23.02;34.01
20955;BME280;10636;19.390;-99.256;2023-02-12T06:40:17;78134.56;;;23.02;33.54
20955;BME280;10636;19.390;-99.256;2023-02-12T06:42:45;78123.88;;;23.02;34.35
20955;BME280;10636;19.390;-99.256;2023-02-12T06:45:14;78127.84;;;23.01;33.89
20955;BME280;10636;19.390;-99.256;2023-02-12T06:47:42;78126.47;;;23.00;34.42
20955;BME280;10636;19.390;-99.256;2023-02-12T06:50:13;78123.19;;;23.02;34.02
20955;BME280;10636;19.390;-99.256;2023-02-12T06:52:41;78126.47;;;23.00;34.16
20955;BME280;10636;19.390;-99.256;2023-02-12T06:55:10;78127.75;;;22.99;34.41
20955;BME280;10636;19.390;-99.256;2023-02-12T06:57:38;78125.06;;;22.99;33.60
20955;BME280;10636;19.390;-99.256;2023-02-12T07:00:08;78126.34;;;22.98;34.37
20955;BME280;10636;19.390;-99.256;2023-02-12T07:02:37;78126.34;;;22.98;34.20
20955;BME280;10636;19.390;-99.256;2023-02-12T07:05:06;78120.22;;;22.95;34.27
20955;BME280;10636;19.390;-99.256;2023-02-12T07:07:37;78125.56;;;22.95;33.95
20955;BME280;10636;19.390;-99.256;2023-02-12T07:10:07;78124.19;;;22.94;33.91
20955;BME280;10636;19.390;-99.256;2023-02-12T07:12:35;78123.50;;;22.94;34.29
20955;BME280;10636;19.390;-99.256;2023-02-12T07:15:04;78124.78;;;22.93;33.95
20955;BME280;10636;19.390;-99.256;2023-02-12T07:17:33;78122.09;;;22.93;33.66
20955;BME280;10636;19.390;-99.256;2023-02-12T07:20:02;78126.06;;;22.92;34.55
20955;BME280;10636;19.390;-99.256;2023-02-12T07:22:31;78114.69;;;22.91;33.96
20955;BME280;10636;19.390;-99.256;2023-02-12T07:25:04;78120.63;;;22.90;34.28
20955;BME280;10636;19.390;-99.256;2023-02-12T07:27:35;78115.19;;;22.88;34.39
20955;BME280;10636;19.390;-99.256;2023-02-12T07:30:05;78116.44;;;22.87;33.92
20955;BME280;10636;19.390;-99.256;2023-02-12T07:32:34;78114.47;;;22.87;34.50
20955;BME280;10636;19.390;-99.256;2023-02-12T07:35:03;78120.41;;;22.86;34.31
20955;BME280;10636;19.390;-99.256;2023-02-12T07:37:33;78113.00;;;22.84;34.49
20955;BME280;10636;19.390;-99.256;2023-02-12T07:40:03;78109.63;;;22.84;34.57
20955;BME280;10636;19.390;-99.256;2023-02-12T07:42:32;78108.22;;;22.83;34.48
20955;BME280;10636;19.390;-99.256;2023-02-12T07:45:00;78107.53;;;22.82;34.35
20955;BME280;10636;19.390;-99.256;2023-02-12T07:47:29;78106.84;;;22.82;34.32
20955;BME280;10636;19.390;-99.256;2023-02-12T07:49:58;78100.72;;;22.79;33.92
20955;BME280;10636;19.390;-99.256;2023-02-12T07:52:26;78098.06;;;22.79;33.89
20955;BME280;10636;19.390;-99.256;2023-02-12T07:54:55;78094.09;;;22.80;34.22
20955;BME280;10636;19.390;-99.256;2023-02-12T07:57:25;78091.31;;;22.78;33.83
20955;BME280;10636;19.390;-99.256;2023-02-12T07:59:53;78097.38;;;22.79;33.98
20955;BME280;10636;19.390;-99.256;2023-02-12T08:02:22;78093.19;;;22.76;34.65
20955;BME280;10636;19.390;-99.256;2023-02-12T08:04:55;78095.78;;;22.74;34.35
20955;BME280;10636;19.390;-99.256;2023-02-12T08:07:23;78093.19;;;22.76;34.15
20955;BME280;10636;19.390;-99.256;2023-02-12T08:09:52;78091.72;;;22.73;33.95
20955;BME280;10636;19.390;-99.256;2023-02-12T08:12:21;78095.69;;;22.71;34.68
20955;BME280;10636;19.390;-99.256;2023-02-12T08:14:51;78088.97;;;22.70;33.99
20955;BME280;10636;19.390;-99.256;2023-02-12T08:17:20;78088.97;;;22.70;33.78
20955;BME280;10636;19.390;-99.256;2023-02-12T08:19:48;78082.16;;;22.67;34.27
20955;BME280;10636;19.390;-99.256;2023-02-12T08:22:17;78080.25;;;22.70;34.46
20955;BME280;10636;19.390;-99.256;2023-02-12T08:24:46;78082.84;;;22.68;34.61
20955;BME280;10636;19.390;-99.256;2023-02-12T08:27:15;78077.50;;;22.68;34.78
20955;BME280;10636;19.390;-99.256;2023-02-12T08:29:43;78078.06;;;22.66;33.94
20955;BME280;10636;19.390;-99.256;2023-02-12T08:32:14;78071.94;;;22.64;33.98
20955;BME280;10636;19.390;-99.256;2023-02-12T08:34:42;78069.16;;;22.62;34.35
20955;BME280;10636;19.390;-99.256;2023-02-12T08:37:11;78073.81;;;22.61;34.51
20955;BME280;10636;19.390;-99.256;2023-02-12T08:39:40;78066.41;;;22.60;33.84
20955;BME280;10636;19.390;-99.256;2023-02-12T08:42:09;78065.72;;;22.59;34.77
20955;BME280;10636;19.390;-99.256;2023-02-12T08:44:37;78066.41;;;22.60;33.88
20955;BME280;10636;19.390;-99.256;2023-02-12T08:47:06;78063.66;;;22.58;34.51
20955;BME280;10636;19.390;-99.256;2023-02-12T08:49:37;78064.34;;;22.58;34.63
20955;BME280;10636;19.390;-99.256;2023-02-12T08:52:05;78068.19;;;22.55;34.39
20955;BME280;10636;19.390;-99.256;2023-02-12T08:54:34;78069.56;;;22.56;34.24
20955;BME280;10636;19.390;-99.256;2023-02-12T08:57:03;78061.38;;;22.52;34.53
20955;BME280;10636;19.390;-99.256;2023-02-12T08:59:31;78062.78;;;22.53;33.95
20955;BME280;10636;19.390;-99.256;2023-02-12T09:02:00;78054.63;;;22.51;34.87
20955;BME280;10636;19.390;-99.256;2023-02-12T09:04:29;78057.91;;;22.50;34.86
20955;BME280;10636;19.390;-99.256;2023-02-12T09:06:59;78058.53;;;22.48;34.49
20955;BME280;10636;19.390;-99.256;2023-02-12T09:09:28;78053.88;;;22.49;34.23
20955;BME280;10636;19.390;-99.256;2023-02-12T09:11:57;78057.16;;;22.47;34.66
20955;BME280;10636;19.390;-99.256;2023-02-12T09:14:25;78050.41;;;22.46;34.50
20955;BME280;10636;19.390;-99.256;2023-02-12T09:16:55;78051.00;;;22.44;33.98
20955;BME280;10636;19.390;-99.256;2023-02-12T09:19:24;78042.22;;;22.42;34.86
20955;BME280;10636;19.390;-99.256;2023-02-12T09:21:54;78040.72;;;22.39;34.74
20955;BME280;10636;19.390;-99.256;2023-02-12T09:24:24;78040.03;;;22.38;34.70
20955;BME280;10636;19.390;-99.256;2023-02-12T09:26:54;78032.41;;;22.33;34.79
20955;BME280;10636;19.390;-99.256;2023-02-12T09:29:23;78043.31;;;22.37;34.11
20955;BME280;10636;19.390;-99.256;2023-02-12T09:31:51;78040.44;;;22.33;34.78
20955;BME280;10636;19.390;-99.256;2023-02-12T09:34:20;78043.09;;;22.33;34.36
20955;BME280;10636;19.390;-99.256;2023-02-12T09:36:48;78037.06;;;22.32;34.32
20955;BME280;10636;19.390;-99.256;2023-02-12T09:39:17;78037.06;;;22.32;33.98
20955;BME280;10636;19.390;-99.256;2023-02-12T09:42:14;78038.25;;;22.29;34.50
20955;BME280;10636;19.390;-99.256;2023-02-12T09:44:53;78039.56;;;22.28;34.93
20955;BME280;10636;19.390;-99.256;2023-02-12T09:47:28;78035.50;;;22.27;34.54
20955;BME280;10636;19.390;-99.256;2023-02-12T09:50:19;78034.69;;;22.25;34.55
20955;BME280;10636;19.390;-99.256;2023-02-12T09:52:54;78037.19;;;22.21;34.39
20955;BME280;10636;19.390;-99.256;2023-02-12T09:55:28;78032.63;;;22.23;34.96
20955;BME280;10636;19.390;-99.256;2023-02-12T09:58:01;78031.75;;;22.18;34.18
20955;BME280;10636;19.390;-99.256;2023-02-12T10:00:31;78041.13;;;22.19;34.18
20955;BME280;10636;19.390;-99.256;2023-02-12T10:03:01;78037.09;;;22.18;34.68
20955;BME280;10636;19.390;-99.256;2023-02-12T10:05:34;78034.34;;;22.16;34.08
20955;BME280;10636;19.390;-99.256;2023-02-12T10:08:30;78035.72;;;22.17;34.44
20955;BME280;10636;19.390;-99.256;2023-02-12T10:11:22;78039.69;;;22.16;34.68
20955;BME280;10636;19.390;-99.256;2023-02-12T10:14:04;78034.22;;;22.14;34.38
20955;BME280;10636;19.390;-99.256;2023-02-12T10:16:44;78032.25;;;22.15;34.82
20955;BME280;10636;19.390;-99.256;2023-02-12T10:19:27;78031.53;;;22.14;34.58
20955;BME280;10636;19.390;-99.256;2023-02-12T10:22:05;78042.22;;;22.14;35.06
20955;BME280;10636;19.390;-99.256;2023-02-12T10:25:03;78039.47;;;22.12;34.55
20955;BME280;10636;19.390;-99.256;2023-02-12T10:27:38;78039.47;;;22.12;34.48
20955;BME280;10636;19.390;-99.256;2023-02-12T10:30:20;78036.72;;;22.10;35.07
20955;BME280;10636;19.390;-99.256;2023-02-12T10:32:52;78027.88;;;22.08;34.81
20955;BME280;10636;19.390;-99.256;2023-02-12T10:35:23;78033.91;;;22.08;34.30
20955;BME280;10636;19.390;-99.256;2023-02-12T10:37:55;78027.19;;;22.07;34.38
20955;BME280;10636;19.390;-99.256;2023-02-12T10:40:27;78025.72;;;22.04;35.02
20955;BME280;10636;19.390;-99.256;2023-02-12T10:42:58;78021.75;;;22.05;35.02
20955;BME280;10636;19.390;-99.256;2023-02-12T10:45:31;78015.03;;;22.04;34.39
20955;BME280;10636;19.390;-99.256;2023-02-12T10:48:07;78021.66;;;22.03;34.32
20955;BME280;10636;19.390;-99.256;2023-02-12T10:50:47;78018.97;;;22.03;34.68
20955;BME280;10636;19.390;-99.256;2023-02-12T10:53:20;78012.25;;;22.02;34.58
20955;BME280;10636;19.390;-99.256;2023-02-12T10:55:49;78022.84;;;22.00;34.42
20955;BME280;10636;19.390;-99.256;2023-02-12T10:58:31;78024.16;;;21.99;35.08
20955;BME280;10636;19.390;-99.256;2023-02-12T11:01:02;78022.06;;;21.98;34.78
20955;BME280;10636;19.390;-99.256;2023-02-12T11:03:32;78024.03;;;21.97;34.77
20955;BME280;10636;19.390;-99.256;2023-02-12T11:06:14;78019.28;;;21.96;34.61
20955;BME280;10636;19.390;-99.256;2023-02-12T11:08:43;78023.94;;;21.95;34.97
20955;BME280;10636;19.390;-99.256;2023-02-12T11:11:15;78025.81;;;21.92;34.75
20955;BME280;10636;19.390;-99.256;2023-02-12T11:13:46;78030.56;;;21.94;34.55
20955;BME280;10636;19.390;-99.256;2023-02-12T11:16:26;78023.84;;;21.93;34.43
20955;BME280;10636;19.390;-99.256;2023-02-12T11:18:58;78034.50;;;21.93;35.08
20955;BME280;10636;19.390;-99.256;2023-02-12T11:21:27;78027.78;;;21.92;34.81
20955;BME280;10636;19.390;-99.256;2023-02-12T11:23:56;78027.78;;;21.92;34.39
20955;BME280;10636;19.390;-99.256;2023-02-12T11:26:26;78020.19;;;21.86;34.90
20955;BME280;10636;19.390;-99.256;2023-02-12T11:28:57;78027.72;;;21.90;34.28
20955;BME280;10636;19.390;-99.256;2023-02-12T11:31:29;78029.00;;;21.89;34.85
20955;BME280;10636;19.390;-99.256;2023-02-12T11:34:15;78019.50;;;21.86;35.08
20955;BME280;10636;19.390;-99.256;2023-02-12T11:36:46;78022.06;;;21.84;35.14
20955;BME280;10636;19.390;-99.256;2023-02-12T11:39:20;78021.47;;;21.85;34.61
20955;BME280;10636;19.390;-99.256;2023-02-12T11:41:52;78036.81;;;21.85;34.66
20955;BME280;10636;19.390;-99.256;2023-02-12T11:44:24;78034.03;;;21.83;34.74
20955;BME280;10636;19.390;-99.256;2023-02-12T11:46:58;78031.19;;;21.79;34.96
20955;BME280;10636;19.390;-99.256;2023-02-12T11:49:31;78036.31;;;21.75;34.78
20955;BME280;10636;19.390;-99.256;2023-02-12T11:52:02;78043.94;;;21.80;34.29
20955;BME280;10636;19.390;-99.256;2023-02-12T11:54:36;78045.91;;;21.80;34.75
20955;BME280;10636;19.390;-99.256;2023-02-12T11:57:09;78048.56;;;21.80;34.70
20955;BME280;10636;19.390;-99.256;2023-02-12T11:59:39;78043.22;;;21.80;34.47
20955;BME280;10636;19.390;-99.256;2023-02-12T12:02:18;78049.19;;;21.78;34.96
20955;BME280;10636;19.390;-99.256;2023-02-12T12:04:53;78054.50;;;21.78;34.67
20955;BME280;10636;19.390;-99.256;2023-02-12T12:07:25;78057.75;;;21.77;35.11
20955;BME280;10636;19.390;-99.256;2023-02-12T12:09:59;78059.03;;;21.76;34.77
20955;BME280;10636;19.390;-99.256;2023-02-12T12:12:36;78053.63;;;21.74;34.78
20955;BME280;10636;19.390;-99.256;2023-02-12T12:15:15;78056.28;;;21.74;35.10
20955;BME280;10636;19.390;-99.256;2023-02-12T12:18:08;78064.88;;;21.72;34.43
20955;BME280;10636;19.390;-99.256;2023-02-12T12:21:07;78060.25;;;21.73;34.80
20955;BME280;10636;19.390;-99.256;2023-02-12T12:23:41;78062.81;;;21.71;34.53
20955;BME280;10636;19.390;-99.256;2023-02-12T12:26:14;78064.09;;;21.70;35.04
20955;BME280;10636;19.390;-99.256;2023-02-12T12:28:50;78065.97;;;21.67;34.59
20955;BME280;10636;19.390;-99.256;2023-02-12T12:31:27;78067.94;;;21.66;34.80
20955;BME280;10636;19.390;-99.256;2023-02-12T12:34:04;78070.50;;;21.64;35.16
20955;BME280;10636;19.390;-99.256;2023-02-12T12:39:35;78077.16;;;21.63;35.33
20955;BME280;10636;19.390;-99.256;2023-02-12T12:42:30;78077.75;;;21.62;34.87
20955;BME280;10636;19.390;-99.256;2023-02-12T12:45:14;78072.97;;;21.60;35.16
20955;BME280;10636;19.390;-99.256;2023-02-12T12:47:57;78082.28;;;21.59;35.00
20955;BME280;10636;19.390;-99.256;2023-02-12T12:50:41;78079.59;;;21.59;34.44
20955;BME280;10636;19.390;-99.256;2023-02-12T12:53:21;78082.19;;;21.57;35.04
20955;BME280;10636;19.390;-99.256;2023-02-12T12:58:58;78095.41;;;21.55;34.61
20955;BME280;10636;19.390;-99.256;2023-02-12T13:01:55;78100.75;;;21.55;35.06
20955;BME280;10636;19.390;-99.256;2023-02-12T13:05:00;78097.97;;;21.53;35.05
20955;BME280;10636;19.390;-99.256;2023-02-12T13:07:45;78095.09;;;21.49;34.93
20955;BME280;10636;19.390;-99.256;2023-02-12T13:10:27;78108.66;;;21.53;34.57
20955;BME280;10636;19.390;-99.256;2023-02-12T13:13:08;78106.00;;;21.53;35.30
20955;BME280;10636;19.390;-99.256;2023-02-12T13:15:47;78103.31;;;21.53;35.24